sensor_id;sensor_type;location;lat;lon;timestamp;pressure;altitude;pressure_sealevel;temperature;humidity
21504;BME280;10913;51.992;9.228;2023-07-20T00:01:11;99999.44;;;18.09;100.00
21504;BME280;10913;51.992;9.228;2023-07-20T00:03:37;99992.38;;;18.08;100.00
21504;BME280;10913;51.992;9.228;2023-07-20T00:06:02;99998.59;;;18.09;100.00
21504;BME280;10913;51.992;9.228;2023-07-20T00:08:29;99997.72;;;18.08;100.00
21504;BME280;10913;51.992;9.228;2023-07-20T00:10:55;99995.84;;;18.10;100.00
21504;BME280;10913;51.992;9.228;2023-07-20T00:13:20;99989.69;;;18.08;100.00
21504;BME280;10913;51.992;9.228;2023-07-20T00:15:46;99988.81;;;18.08;100.00
21504;BME280;10913;51.992;9.228;2023-07-20T00:18:12;99982.59;;;18.07;100.00
21504;BME280;10913;51.992;9.228;2023-07-20T00:20:37;99976.44;;;18.05;100.00
21504;BME280;10913;51.992;9.228;2023-07-20T00:23:03;99979.94;;;18.07;100.00
21504;BME280;10913;51.992;9.228;2023-07-20T00:25:29;99981.78;;;18.05;100.00
21504;BME280;10913;51.992;9.228;2023-07-20T00:27:57;99982.66;;;18.06;100.00
21504;BME280;10913;51.992;9.228;2023-07-20T00:30:22;99981.78;;;18.05;100.00
21504;BME280;10913;51.992;9.228;2023-07-20T00:32:47;99981.84;;;18.04;100.00
21504;BME280;10913;51.992;9.228;2023-07-20T00:35:13;99988.06;;;18.04;100.00
21504;BME280;10913;51.992;9.228;2023-07-20T00:37:39;99975.69;;;18.02;100.00
21504;BME280;10913;51.992;9.228;2023-07-20T00:40:05;99975.75;;;18.00;100.00
21504;BME280;10913;51.992;9.228;2023-07-20T00:42:32;99976.69;;;17.99;100.00
21504;BME280;10913;51.992;9.228;2023-07-20T00:44:58;99975.13;;;17.95;100.00
21504;BME280;10913;51.992;9.228;2023-07-20T00:47:23;99968.16;;;17.91;100.00
21504;BME280;10913;51.992;9.228;2023-07-20T00:49:50;99969.22;;;17.87;100.00
21504;BME280;10913;51.992;9.228;2023-07-20T00:52:16;99983.50;;;17.86;100.00
21504;BME280;10913;51.992;9.228;2023-07-20T00:54:42;99983.56;;;17.84;100.00
21504;BME280;10913;51.992;9.228;2023-07-20T00:57:09;99973.94;;;17.80;100.00
21504;BME280;10913;51.992;9.228;2023-07-20T00:59:35;99974.09;;;17.77;100.00
21504;BME280;10913;51.992;9.228;2023-07-20T01:02:01;99978.63;;;17.75;100.00
21504;BME280;10913;51.992;9.228;2023-07-20T01:04:27;99978.75;;;17.72;100.00
21504;BME280;10913;51.992;9.228;2023-07-20T01:15:01;99980.78;;;17.66;100.00
21504;BME280;10913;51.992;9.228;2023-07-20T01:17:26;99981.72;;;17.65;100.00
21504;BME280;10913;51.992;9.228;2023-07-20T01:19:51;99985.34;;;17.62;100.00
21504;BME280;10913;51.992;9.228;2023-07-20T01:32:44;99982.59;;;17.64;100.00
21504;BME280;10913;51.992;9.228;2023-07-20T01:35:13;99974.72;;;17.61;100.00
21504;BME280;10913;51.992;9.228;2023-07-20T01:37:41;99972.09;;;17.59;100.00
21504;BME280;10913;51.992;9.228;2023-07-20T01:40:08;99981.06;;;17.58;100.00
21504;BME280;10913;51.992;9.228;2023-07-20T01:42:34;99975.78;;;17.56;100.00
21504;BME280;10913;51.992;9.228;2023-07-20T01:44:59;99982.06;;;17.55;100.00
21504;BME280;10913;51.992;9.228;2023-07-20T01:47:25;99978.53;;;17.55;100.00
21504;BME280;10913;51.992;9.228;2023-07-20T01:49:50;99980.31;;;17.54;100.00
21504;BME280;10913;51.992;9.228;2023-07-20T01:52:15;99982.13;;;17.54;100.00
21504;BME280;10913;51.992;9.228;2023-07-20T01:54:41;99979.47;;;17.54;100.00
21504;BME280;10913;51.992;9.228;2023-07-20T01:57:06;99976.78;;;17.54;100.00
21504;BME280;10913;51.992;9.228;2023-07-20T01:59:32;99970.56;;;17.53;100.00
21504;BME280;10913;51.992;9.228;2023-07-20T02:01:57;99977.78;;;17.51;100.00
21504;BME280;10913;51.992;9.228;2023-07-20T02:04:22;99973.38;;;17.50;100.00
21504;BME280;10913;51.992;9.228;2023-07-20T02:06:48;99962.78;;;17.47;100.00
21504;BME280;10913;51.992;9.228;2023-07-20T02:09:13;99972.78;;;17.42;100.00
21504;BME280;10913;51.992;9.228;2023-07-20T02:11:38;99971.03;;;17.41;100.00
21504;BME280;10913;51.992;9.228;2023-07-20T02:14:04;99972.91;;;17.39;100.00
21504;BME280;10913;51.992;9.228;2023-07-20T02:16:29;99971.19;;;17.38;100.00
21504;BME280;10913;51.992;9.228;2023-07-20T02:18:54;99971.25;;;17.37;100.00
21504;BME280;10913;51.992;9.228;2023-07-20T02:21:22;99977.59;;;17.34;100.00
21504;BME280;10913;51.992;9.228;2023-07-20T02:23:48;99970.63;;;17.30;100.00
21504;BME280;10913;51.992;9.228;2023-07-20T02:26:13;99969.00;;;17.26;100.00
21504;BME280;10913;51.992;9.228;2023-07-20T02:28:39;99971.78;;;17.23;100.00
21504;BME280;10913;51.992;9.228;2023-07-20T02:31:05;99966.53;;;17.20;100.00
21504;BME280;10913;51.992;9.228;2023-07-20T02:33:30;99966.63;;;17.18;100.00
21504;BME280;10913;51.992;9.228;2023-07-20T02:35:55;99965.78;;;17.18;100.00
21504;BME280;10913;51.992;9.228;2023-07-20T02:38:21;99969.38;;;17.17;100.00
21504;BME280;10913;51.992;9.228;2023-07-20T02:40:46;99971.16;;;17.16;100.00
21504;BME280;10913;51.992;9.228;2023-07-20T02:43:11;99965.00;;;17.14;100.00
21504;BME280;10913;51.992;9.228;2023-07-20T02:45:40;99964.13;;;17.14;100.00
21504;BME280;10913;51.992;9.228;2023-07-20T02:48:06;99963.28;;;17.13;100.00
21504;BME280;10913;51.992;9.228;2023-07-20T02:50:33;99969.47;;;17.14;100.00
21504;BME280;10913;51.992;9.228;2023-07-20T02:53:00;99967.75;;;17.13;100.00
21504;BME280;10913;51.992;9.228;2023-07-20T02:55:25;99963.28;;;17.13;100.00
21504;BME280;10913;51.992;9.228;2023-07-20T02:57:50;99971.22;;;17.15;100.00
21504;BME280;10913;51.992;9.228;2023-07-20T03:00:16;99965.88;;;17.15;100.00
21504;BME280;10913;51.992;9.228;2023-07-20T03:02:44;99965.06;;;17.13;100.00
21504;BME280;10913;51.992;9.228;2023-07-20T03:05:09;99971.34;;;17.12;100.00
21504;BME280;10913;51.992;9.228;2023-07-20T03:07:35;99971.34;;;17.12;100.00
21504;BME280;10913;51.992;9.228;2023-07-20T03:10:00;99973.06;;;17.13;100.00
21504;BME280;10913;51.992;9.228;2023-07-20T03:12:25;99961.53;;;17.12;100.00
21504;BME280;10913;51.992;9.228;2023-07-20T03:14:51;99967.75;;;17.13;100.00
21504;BME280;10913;51.992;9.228;2023-07-20T03:17:16;99967.84;;;17.10;100.00
21504;BME280;10913;51.992;9.228;2023-07-20T03:19:41;99979.56;;;17.06;100.00
21504;BME280;10913;51.992;9.228;2023-07-20T03:22:08;99976.25;;;16.99;100.00
21504;BME280;10913;51.992;9.228;2023-07-20T03:24:33;99960.56;;;16.92;100.00
21504;BME280;10913;51.992;9.228;2023-07-20T03:26:58;99963.34;;;16.88;100.00
21504;BME280;10913;51.992;9.228;2023-07-20T03:29:25;99971.44;;;16.85;100.00
21504;BME280;10913;51.992;9.228;2023-07-20T03:31:50;99968.88;;;16.82;100.00
21504;BME280;10913;51.992;9.228;2023-07-20T03:34:15;99966.22;;;16.82;100.00
21504;BME280;10913;51.992;9.228;2023-07-20T03:36:41;99962.63;;;16.83;100.00
21504;BME280;10913;51.992;9.228;2023-07-20T03:39:06;99956.38;;;16.84;100.00
21504;BME280;10913;51.992;9.228;2023-07-20T03:41:31;99959.03;;;16.84;100.00
21504;BME280;10913;51.992;9.228;2023-07-20T03:43:57;99964.38;;;16.84;100.00
21504;BME280;10913;51.992;9.228;2023-07-20T03:46:22;99961.59;;;16.87;100.00
21504;BME280;10913;51.992;9.228;2023-07-20T03:48:48;99951.69;;;16.91;100.00
21504;BME280;10913;51.992;9.228;2023-07-20T03:51:13;99957.88;;;16.92;100.00
21504;BME280;10913;51.992;9.228;2023-07-20T03:53:39;99950.81;;;16.91;100.00
21504;BME280;10913;51.992;9.228;2023-07-20T03:56:04;99962.34;;;16.91;100.00
21504;BME280;10913;51.992;9.228;2023-07-20T03:58:29;99959.63;;;16.93;100.00
21504;BME280;10913;51.992;9.228;2023-07-20T04:00:55;99961.38;;;16.94;100.00
21504;BME280;10913;51.992;9.228;2023-07-20T04:03:20;99960.50;;;16.93;100.00
21504;BME280;10913;51.992;9.228;2023-07-20T04:05:47;99968.56;;;16.92;100.00
21504;BME280;10913;51.992;9.228;2023-07-20T04:08:13;99966.81;;;16.91;100.00
21504;BME280;10913;51.992;9.228;2023-07-20T04:10:38;99994.16;;;16.97;100.00
21504;BME280;10913;51.992;9.228;2023-07-20T04:13:04;100002.06;;;16.99;100.00
21504;BME280;10913;51.992;9.228;2023-07-20T04:15:30;100001.16;;;17.00;100.00
21504;BME280;10913;51.992;9.228;2023-07-20T04:17:57;99993.94;;;17.02;100.00
21504;BME280;10913;51.992;9.228;2023-07-20T04:20:23;99994.00;;;17.00;100.00
21504;BME280;10913;51.992;9.228;2023-07-20T04:22:49;99989.69;;;16.98;100.00
21504;BME280;10913;51.992;9.228;2023-07-20T04:25:15;100003.25;;;16.92;100.00
21504;BME280;10913;51.992;9.228;2023-07-20T04:27:41;100006.03;;;16.88;100.00
21504;BME280;10913;51.992;9.228;2023-07-20T04:30:08;99996.22;;;16.89;100.00
21504;BME280;10913;51.992;9.228;2023-07-20T04:32:33;99990.03;;;16.88;100.00
21504;BME280;10913;51.992;9.228;2023-07-20T04:34:59;99997.16;;;16.88;100.00
21504;BME280;10913;51.992;9.228;2023-07-20T04:37:25;99992.69;;;16.88;100.00
21504;BME280;10913;51.992;9.228;2023-07-20T04:39:50;100003.34;;;16.88;100.00
21504;BME280;10913;51.992;9.228;2023-07-20T04:42:15;100004.28;;;16.87;100.00
21504;BME280;10913;51.992;9.228;2023-07-20T04:44:41;100002.53;;;16.86;100.00
21504;BME280;10913;51.992;9.228;2023-07-20T04:47:06;100003.41;;;16.87;100.00
21504;BME280;10913;51.992;9.228;2023-07-20T04:49:33;100002.44;;;16.90;100.00
21504;BME280;10913;51.992;9.228;2023-07-20T04:51:59;100016.69;;;16.88;100.00
21504;BME280;10913;51.992;9.228;2023-07-20T04:54:24;100014.97;;;16.87;100.00
21504;BME280;10913;51.992;9.228;2023-07-20T04:56:52;100007.81;;;16.88;100.00
21504;BME280;10913;51.992;9.228;2023-07-20T04:59:18;100018.56;;;16.86;100.00
21504;BME280;10913;51.992;9.228;2023-07-20T05:01:43;100017.69;;;16.86;100.00
21504;BME280;10913;51.992;9.228;2023-07-20T05:04:09;100022.16;;;16.85;100.00
21504;BME280;10913;51.992;9.228;2023-07-20T05:06:34;100021.28;;;16.85;100.00
21504;BME280;10913;51.992;9.228;2023-07-20T05:08:59;100021.22;;;16.86;100.00
21504;BME280;10913;51.992;9.228;2023-07-20T05:11:25;100022.09;;;16.87;100.00
21504;BME280;10913;51.992;9.228;2023-07-20T05:13:50;100027.47;;;16.85;100.00
21504;BME280;10913;51.992;9.228;2023-07-20T05:16:15;100021.22;;;16.86;100.00
21504;BME280;10913;51.992;9.228;2023-07-20T05:18:41;100031.09;;;16.84;100.00
21504;BME280;10913;51.992;9.228;2023-07-20T05:21:06;100029.34;;;16.83;100.00
21504;BME280;10913;51.992;9.228;2023-07-20T05:23:33;100028.47;;;16.83;100.00
21504;BME280;10913;51.992;9.228;2023-07-20T05:25:58;100024.09;;;16.80;100.00
21504;BME280;10913;51.992;9.228;2023-07-20T05:28:25;100034.91;;;16.77;100.00
21504;BME280;10913;51.992;9.228;2023-07-20T05:30:51;100033.28;;;16.73;100.00
21504;BME280;10913;51.992;9.228;2023-07-20T05:33:21;100035.06;;;16.73;100.00
21504;BME280;10913;51.992;9.228;2023-07-20T05:35:46;100042.09;;;16.75;100.00
21504;BME280;10913;51.992;9.228;2023-07-20T05:38:12;100039.44;;;16.75;100.00
21504;BME280;10913;51.992;9.228;2023-07-20T05:40:39;100029.69;;;16.74;100.00
21504;BME280;10913;51.992;9.228;2023-07-20T05:43:05;100036.78;;;16.75;100.00
21504;BME280;10913;51.992;9.228;2023-07-20T05:45:30;100039.44;;;16.75;100.00
21504;BME280;10913;51.992;9.228;2023-07-20T05:47:56;100047.38;;;16.77;100.00
21504;BME280;10913;51.992;9.228;2023-07-20T05:50:21;100046.47;;;16.78;100.00
21504;BME280;10913;51.992;9.228;2023-07-20T05:52:46;100048.16;;;16.79;100.00
21504;BME280;10913;51.992;9.228;2023-07-20T05:55:12;100044.53;;;16.81;100.00
21504;BME280;10913;51.992;9.228;2023-07-20T05:57:38;100046.22;;;16.84;100.00
21504;BME280;10913;51.992;9.228;2023-07-20T06:00:07;100048.78;;;16.87;100.00
21504;BME280;10913;51.992;9.228;2023-07-20T06:02:33;100049.66;;;16.87;100.00
21504;BME280;10913;51.992;9.228;2023-07-20T06:04:58;100057.66;;;16.87;100.00
21504;BME280;10913;51.992;9.228;2023-07-20T06:07:24;100056.72;;;16.88;100.00
21504;BME280;10913;51.992;9.228;2023-07-20T06:09:49;100060.16;;;16.92;100.00
21504;BME280;10913;51.992;9.228;2023-07-20T06:12:15;100070.72;;;16.95;100.00
21504;BME280;10913;51.992;9.228;2023-07-20T06:14:40;100066.25;;;16.96;100.00
21504;BME280;10913;51.992;9.228;2023-07-20T06:17:05;100060.00;;;16.97;100.00
21504;BME280;10913;51.992;9.228;2023-07-20T06:19:31;100057.34;;;16.97;100.00
21504;BME280;10913;51.992;9.228;2023-07-20T06:21:56;100073.22;;;17.00;100.00
21504;BME280;10913;51.992;9.228;2023-07-20T06:24:21;100067.88;;;17.00;100.00
21504;BME280;10913;51.992;9.228;2023-07-20T06:26:47;100076.81;;;16.99;100.00
21504;BME280;10913;51.992;9.228;2023-07-20T06:29:12;100083.78;;;17.03;100.00
21504;BME280;10913;51.992;9.228;2023-07-20T06:31:38;100078.28;;;17.07;100.00
21504;BME280;10913;51.992;9.228;2023-07-20T06:34:03;100082.59;;;17.11;100.00
21504;BME280;10913;51.992;9.228;2023-07-20T06:36:29;100088.69;;;17.15;100.00
21504;BME280;10913;51.992;9.228;2023-07-20T06:38:55;100089.34;;;17.20;100.00
21504;BME280;10913;51.992;9.228;2023-07-20T06:41:20;100096.38;;;17.22;100.00
21504;BME280;10913;51.992;9.228;2023-07-20T06:43:46;100083.84;;;17.25;100.00
21504;BME280;10913;51.992;9.228;2023-07-20T06:46:12;100097.03;;;17.29;100.00
21504;BME280;10913;51.992;9.228;2023-07-20T06:48:43;100095.19;;;17.31;100.00
21504;BME280;10913;51.992;9.228;2023-07-20T06:51:11;100094.31;;;17.31;100.00
21504;BME280;10913;51.992;9.228;2023-07-20T06:53:37;100087.34;;;17.27;100.00
21504;BME280;10913;51.992;9.228;2023-07-20T06:56:03;100082.06;;;17.25;100.00
21504;BME280;10913;51.992;9.228;2023-07-20T06:58:28;100085.53;;;17.27;100.00
21504;BME280;10913;51.992;9.228;2023-07-20T07:00:53;100089.84;;;17.31;100.00
21504;BME280;10913;51.992;9.228;2023-07-20T07:03:30;100084.28;;;17.37;100.00
21504;BME280;10913;51.992;9.228;2023-07-20T07:06:07;100090.25;;;17.44;100.00
21504;BME280;10913;51.992;9.228;2023-07-20T07:08:33;100091.72;;;17.52;100.00
21504;BME280;10913;51.992;9.228;2023-07-20T07:10:58;100093.88;;;17.66;100.00
21504;BME280;10913;51.992;9.228;2023-07-20T07:14:01;100102.97;;;17.84;99.34
21504;BME280;10913;51.992;9.228;2023-07-20T07:16:39;100101.41;;;18.00;99.16
21504;BME280;10913;51.992;9.228;2023-07-20T07:19:05;100107.91;;;18.16;99.15
21504;BME280;10913;51.992;9.228;2023-07-20T07:21:31;100113.38;;;18.35;98.12
21504;BME280;10913;51.992;9.228;2023-07-20T07:23:56;100109.97;;;18.52;97.61
21504;BME280;10913;51.992;9.228;2023-07-20T07:26:23;100112.91;;;18.68;95.71
21504;BME280;10913;51.992;9.228;2023-07-20T07:28:49;100111.34;;;18.82;94.91
21504;BME280;10913;51.992;9.228;2023-07-20T07:31:14;100110.22;;;18.88;93.29
21504;BME280;10913;51.992;9.228;2023-07-20T07:33:40;100106.13;;;19.00;93.51
21504;BME280;10913;51.992;9.228;2023-07-20T07:36:06;100114.56;;;19.11;94.05
21504;BME280;10913;51.992;9.228;2023-07-20T07:38:31;100116.81;;;19.20;93.18
21504;BME280;10913;51.992;9.228;2023-07-20T07:40:58;100117.56;;;19.23;91.80
21504;BME280;10913;51.992;9.228;2023-07-20T07:43:23;100119.22;;;19.26;90.08
21504;BME280;10913;51.992;9.228;2023-07-20T07:45:49;100120.41;;;19.39;89.63
21504;BME280;10913;51.992;9.228;2023-07-20T07:48:14;100114.53;;;19.51;90.35
21504;BME280;10913;51.992;9.228;2023-07-20T07:50:39;100116.19;;;19.54;88.30
21504;BME280;10913;51.992;9.228;2023-07-20T07:53:08;100114.47;;;19.53;87.53
21504;BME280;10913;51.992;9.228;2023-07-20T07:55:35;100124.81;;;19.60;87.69
21504;BME280;10913;51.992;9.228;2023-07-20T07:58:00;100136.72;;;19.74;87.69
21504;BME280;10913;51.992;9.228;2023-07-20T08:00:26;100134.53;;;19.82;86.88
21504;BME280;10913;51.992;9.228;2023-07-20T08:02:51;100134.81;;;19.94;87.55
21504;BME280;10913;51.992;9.228;2023-07-20T08:05:17;100127.69;;;20.12;86.41
21504;BME280;10913;51.992;9.228;2023-07-20T08:07:42;100136.16;;;20.41;85.51
21504;BME280;10913;51.992;9.228;2023-07-20T08:10:08;100134.78;;;20.68;85.64
21504;BME280;10913;51.992;9.228;2023-07-20T08:12:34;100127.03;;;20.96;83.97
21504;BME280;10913;51.992;9.228;2023-07-20T08:15:00;100128.50;;;21.19;83.11
21504;BME280;10913;51.992;9.228;2023-07-20T08:17:25;100136.50;;;21.38;81.29
21504;BME280;10913;51.992;9.228;2023-07-20T08:19:51;100132.34;;;21.48;79.59
21504;BME280;10913;51.992;9.228;2023-07-20T08:22:16;100135.00;;;21.65;79.74
21504;BME280;10913;51.992;9.228;2023-07-20T08:24:42;100133.00;;;21.85;78.56
21504;BME280;10913;51.992;9.228;2023-07-20T08:27:09;100131.72;;;21.92;78.03
21504;BME280;10913;51.992;9.228;2023-07-20T08:29:35;100138.16;;;21.89;77.61
21504;BME280;10913;51.992;9.228;2023-07-20T08:32:01;100135.44;;;21.74;76.98
21504;BME280;10913;51.992;9.228;2023-07-20T08:34:26;100147.22;;;21.55;76.18
21504;BME280;10913;51.992;9.228;2023-07-20T08:36:51;100143.91;;;21.66;76.40
21504;BME280;10913;51.992;9.228;2023-07-20T08:39:17;100152.09;;;21.80;76.15
21504;BME280;10913;51.992;9.228;2023-07-20T08:41:43;100154.81;;;21.96;75.51
21504;BME280;10913;51.992;9.228;2023-07-20T08:44:10;100144.19;;;22.10;74.69
21504;BME280;10913;51.992;9.228;2023-07-20T08:46:38;100138.53;;;22.30;74.18
21504;BME280;10913;51.992;9.228;2023-07-20T08:49:04;100146.84;;;22.42;74.43
21504;BME280;10913;51.992;9.228;2023-07-20T08:51:30;100144.50;;;22.36;74.46
21504;BME280;10913;51.992;9.228;2023-07-20T08:53:56;100149.22;;;22.16;73.80
21504;BME280;10913;51.992;9.228;2023-07-20T08:56:23;100147.81;;;22.09;74.31
21504;BME280;10913;51.992;9.228;2023-07-20T08:58:51;100155.09;;;22.07;73.37
21504;BME280;10913;51.992;9.228;2023-07-20T09:01:17;100146.94;;;22.24;73.53
21504;BME280;10913;51.992;9.228;2023-07-20T09:03:45;100150.75;;;22.52;73.07
21504;BME280;10913;51.992;9.228;2023-07-20T09:06:10;100138.53;;;22.76;71.46
21504;BME280;10913;51.992;9.228;2023-07-20T09:08:42;100146.63;;;23.06;71.22
21504;BME280;10913;51.992;9.228;2023-07-20T09:11:11;100144.81;;;23.21;71.23
21504;BME280;10913;51.992;9.228;2023-07-20T09:13:37;100143.84;;;23.22;70.64
21504;BME280;10913;51.992;9.228;2023-07-20T09:16:03;100140.28;;;23.21;70.65
21504;BME280;10913;51.992;9.228;2023-07-20T09:18:33;100144.25;;;23.16;69.43
21504;BME280;10913;51.992;9.228;2023-07-20T09:21:03;100143.66;;;23.25;69.12
21504;BME280;10913;51.992;9.228;2023-07-20T09:23:30;100152.53;;;23.41;68.44
21504;BME280;10913;51.992;9.228;2023-07-20T09:25:57;100153.31;;;23.43;67.26
21504;BME280;10913;51.992;9.228;2023-07-20T09:28:23;100150.44;;;23.60;67.13
21504;BME280;10913;51.992;9.228;2023-07-20T09:30:48;100145.34;;;23.70;67.62
21504;BME280;10913;51.992;9.228;2023-07-20T09:33:23;100141.28;;;23.91;67.73
21504;BME280;10913;51.992;9.228;2023-07-20T09:35:48;100144.91;;;24.04;67.18
21504;BME280;10913;51.992;9.228;2023-07-20T09:38:14;100146.19;;;23.99;66.32
21504;BME280;10913;51.992;9.228;2023-07-20T09:40:41;100147.97;;;23.57;66.69
21504;BME280;10913;51.992;9.228;2023-07-20T09:43:09;100146.69;;;23.34;67.24
21504;BME280;10913;51.992;9.228;2023-07-20T09:45:42;100153.81;;;23.35;67.28
21504;BME280;10913;51.992;9.228;2023-07-20T09:48:09;100153.56;;;23.54;67.49
21504;BME280;10913;51.992;9.228;2023-07-20T09:50:42;100150.38;;;23.76;65.72
21504;BME280;10913;51.992;9.228;2023-07-20T09:53:11;100145.81;;;23.91;65.52
21504;BME280;10913;51.992;9.228;2023-07-20T09:55:40;100154.06;;;24.02;64.52
21504;BME280;10913;51.992;9.228;2023-07-20T09:58:06;100152.56;;;23.98;65.32
21504;BME280;10913;51.992;9.228;2023-07-20T10:00:36;100154.81;;;23.77;64.54
21504;BME280;10913;51.992;9.228;2023-07-20T10:03:04;100154.69;;;23.64;66.08
21504;BME280;10913;51.992;9.228;2023-07-20T10:05:32;100162.50;;;23.55;66.46
21504;BME280;10913;51.992;9.228;2023-07-20T10:08:03;100156.63;;;23.62;63.63
21504;BME280;10913;51.992;9.228;2023-07-20T10:10:31;100156.44;;;23.65;65.11
21504;BME280;10913;51.992;9.228;2023-07-20T10:12:57;100151.91;;;23.66;65.13
21504;BME280;10913;51.992;9.228;2023-07-20T10:15:33;100159.88;;;23.82;65.35
21504;BME280;10913;51.992;9.228;2023-07-20T10:20:56;100152.81;;;24.08;65.40
21504;BME280;10913;51.992;9.228;2023-07-20T10:23:24;100160.44;;;24.01;65.14
21504;BME280;10913;51.992;9.228;2023-07-20T10:25:52;100155.13;;;23.99;65.09
21504;BME280;10913;51.992;9.228;2023-07-20T10:28:18;100148.59;;;24.03;65.59
21504;BME280;10913;51.992;9.228;2023-07-20T10:30:45;100155.81;;;24.03;61.18
21504;BME280;10913;51.992;9.228;2023-07-20T10:33:11;100157.97;;;23.98;62.53
21504;BME280;10913;51.992;9.228;2023-07-20T10:38:17;100160.72;;;24.11;64.16
21504;BME280;10913;51.992;9.228;2023-07-20T10:40:42;100153.13;;;24.17;64.13
21504;BME280;10913;51.992;9.228;2023-07-20T10:43:09;100148.00;;;24.27;64.10
21504;BME280;10913;51.992;9.228;2023-07-20T10:48:13;100133.63;;;24.53;62.92
21504;BME280;10913;51.992;9.228;2023-07-20T10:50:40;100139.66;;;24.84;62.75
21504;BME280;10913;51.992;9.228;2023-07-20T10:53:14;100145.22;;;24.68;60.12
21504;BME280;10913;51.992;9.228;2023-07-20T10:55:43;100137.91;;;24.70;61.57
21504;BME280;10913;51.992;9.228;2023-07-20T10:58:11;100143.06;;;25.00;61.03
21504;BME280;10913;51.992;9.228;2023-07-20T11:00:37;100146.78;;;25.24;61.44
21504;BME280;10913;51.992;9.228;2023-07-20T11:03:04;100136.28;;;25.45;60.38
21504;BME280;10913;51.992;9.228;2023-07-20T11:07:59;100137.59;;;25.14;60.37
21504;BME280;10913;51.992;9.228;2023-07-20T11:10:24;100141.56;;;25.09;57.83
21504;BME280;10913;51.992;9.228;2023-07-20T11:18:12;100141.28;;;24.86;59.25
21504;BME280;10913;51.992;9.228;2023-07-20T11:20:37;100131.75;;;24.81;60.03
21504;BME280;10913;51.992;9.228;2023-07-20T11:23:03;100139.53;;;24.85;60.67
21504;BME280;10913;51.992;9.228;2023-07-20T11:25:39;100133.94;;;24.88;60.58
21504;BME280;10913;51.992;9.228;2023-07-20T11:28:08;100135.00;;;24.86;60.87
21504;BME280;10913;51.992;9.228;2023-07-20T11:30:39;100137.59;;;24.87;60.88
21504;BME280;10913;51.992;9.228;2023-07-20T11:33:06;100129.81;;;24.83;61.33
21504;BME280;10913;51.992;9.228;2023-07-20T11:35:51;100130.00;;;24.80;60.64
21504;BME280;10913;51.992;9.228;2023-07-20T11:38:18;100128.81;;;24.71;60.79
21504;BME280;10913;51.992;9.228;2023-07-20T11:40:44;100121.13;;;24.65;60.33
21504;BME280;10913;51.992;9.228;2023-07-20T11:43:11;100125.22;;;24.58;60.33
21504;BME280;10913;51.992;9.228;2023-07-20T11:45:38;100126.91;;;24.46;61.07
21504;BME280;10913;51.992;9.228;2023-07-20T11:48:03;100123.00;;;24.37;60.71
21504;BME280;10913;51.992;9.228;2023-07-20T11:50:28;100120.72;;;24.17;61.22
21504;BME280;10913;51.992;9.228;2023-07-20T11:52:54;100118.66;;;23.94;61.09
21504;BME280;10913;51.992;9.228;2023-07-20T11:55:20;100124.28;;;24.03;61.00
21504;BME280;10913;51.992;9.228;2023-07-20T11:58:20;100122.84;;;24.12;60.97
21504;BME280;10913;51.992;9.228;2023-07-20T12:00:47;100115.13;;;24.06;60.90
21504;BME280;10913;51.992;9.228;2023-07-20T12:03:12;100130.31;;;23.94;60.60
21504;BME280;10913;51.992;9.228;2023-07-20T12:05:38;100129.81;;;23.88;61.33
21504;BME280;10913;51.992;9.228;2023-07-20T12:08:04;100124.72;;;23.97;61.66
21504;BME280;10913;51.992;9.228;2023-07-20T12:10:30;100121.88;;;23.99;58.68
21504;BME280;10913;51.992;9.228;2023-07-20T12:13:01;100121.78;;;24.15;60.55
21504;BME280;10913;51.992;9.228;2023-07-20T12:15:27;100108.72;;;24.35;60.74
21504;BME280;10913;51.992;9.228;2023-07-20T12:17:59;100101.13;;;24.55;60.81
21504;BME280;10913;51.992;9.228;2023-07-20T12:20:30;100098.91;;;24.74;60.94
21504;BME280;10913;51.992;9.228;2023-07-20T12:23:00;100100.31;;;24.92;60.75
21504;BME280;10913;51.992;9.228;2023-07-20T12:25:46;100108.03;;;24.98;59.58
21504;BME280;10913;51.992;9.228;2023-07-20T12:28:16;100097.22;;;24.98;58.30
21504;BME280;10913;51.992;9.228;2023-07-20T12:30:43;100100.91;;;25.10;59.45
21504;BME280;10913;51.992;9.228;2023-07-20T12:33:12;100095.94;;;25.17;59.61
21504;BME280;10913;51.992;9.228;2023-07-20T12:35:40;100095.06;;;25.29;59.14
21504;BME280;10913;51.992;9.228;2023-07-20T12:38:06;100096.59;;;25.33;59.45
21504;BME280;10913;51.992;9.228;2023-07-20T12:40:32;100086.44;;;25.36;58.44
21504;BME280;10913;51.992;9.228;2023-07-20T12:42:57;100083.06;;;25.33;58.07
21504;BME280;10913;51.992;9.228;2023-07-20T12:45:23;100083.38;;;25.28;55.89
21504;BME280;10913;51.992;9.228;2023-07-20T12:47:48;100091.16;;;25.20;56.59
21504;BME280;10913;51.992;9.228;2023-07-20T12:50:13;100083.06;;;25.33;57.78
21504;BME280;10913;51.992;9.228;2023-07-20T12:52:40;100083.59;;;25.38;58.31
21504;BME280;10913;51.992;9.228;2023-07-20T12:55:07;100074.75;;;25.36;57.38
21504;BME280;10913;51.992;9.228;2023-07-20T12:57:36;100072.34;;;25.44;56.69
21504;BME280;10913;51.992;9.228;2023-07-20T13:00:07;100064.75;;;25.49;57.63
21504;BME280;10913;51.992;9.228;2023-07-20T13:02:36;100072.94;;;25.60;55.94
21504;BME280;10913;51.992;9.228;2023-07-20T13:05:02;100069.75;;;25.55;55.97
21504;BME280;10913;51.992;9.228;2023-07-20T13:07:36;100079.03;;;25.64;55.92
21504;BME280;10913;51.992;9.228;2023-07-20T13:10:03;100071.78;;;25.64;55.17
21504;BME280;10913;51.992;9.228;2023-07-20T13:12:31;100069.84;;;25.66;56.16
21504;BME280;10913;51.992;9.228;2023-07-20T13:14:57;100061.69;;;25.79;54.53
21504;BME280;10913;51.992;9.228;2023-07-20T13:17:26;100065.03;;;25.83;55.59
21504;BME280;10913;51.992;9.228;2023-07-20T13:19:52;100057.19;;;25.67;53.11